sensor_id;sensor_type;location;lat;lon;timestamp;temperature;humidity
54796;DHT22;40693;43.884;20.340;2023-07-20T00:02:12;614.60;2432.00
54796;DHT22;40693;43.884;20.340;2023-07-20T00:11:38;614.60;2432.00
54796;DHT22;40693;43.884;20.340;2023-07-20T00:14:07;614.50;2432.00
54796;DHT22;40693;43.884;20.340;2023-07-20T00:16:33;614.60;2432.00
54796;DHT22;40693;43.884;20.340;2023-07-20T00:18:59;614.60;2432.00
54796;DHT22;40693;43.884;20.340;2023-07-20T00:21:25;614.50;2432.00
54796;DHT22;40693;43.884;20.340;2023-07-20T00:23:51;614.50;2432.00
54796;DHT22;40693;43.884;20.340;2023-07-20T00:26:16;614.40;2432.00
54796;DHT22;40693;43.884;20.340;2023-07-20T00:28:43;614.40;2432.00
54796;DHT22;40693;43.884;20.340;2023-07-20T00:31:09;589.60;2432.00
54796;DHT22;40693;43.884;20.340;2023-07-20T00:33:34;589.50;2432.00
54796;DHT22;40693;43.884;20.340;2023-07-20T00:36:00;589.40;2432.00
54796;DHT22;40693;43.884;20.340;2023-07-20T00:38:26;589.40;2432.00
54796;DHT22;40693;43.884;20.340;2023-07-20T00:40:51;589.30;2432.00
54796;DHT22;40693;43.884;20.340;2023-07-20T00:43:17;589.20;2432.00
54796;DHT22;40693;43.884;20.340;2023-07-20T00:45:44;589.00;2432.00
54796;DHT22;40693;43.884;20.340;2023-07-20T00:48:10;589.10;2432.00
54796;DHT22;40693;43.884;20.340;2023-07-20T00:50:36;589.10;2432.00
54796;DHT22;40693;43.884;20.340;2023-07-20T00:53:04;589.10;2432.00
54796;DHT22;40693;43.884;20.340;2023-07-20T00:55:32;589.00;2432.00
54796;DHT22;40693;43.884;20.340;2023-07-20T00:57:59;589.00;2432.00
54796;DHT22;40693;43.884;20.340;2023-07-20T01:00:25;589.10;2432.00
54796;DHT22;40693;43.884;20.340;2023-07-20T01:02:51;589.10;2432.00
54796;DHT22;40693;43.884;20.340;2023-07-20T01:05:17;589.20;2432.00
54796;DHT22;40693;43.884;20.340;2023-07-20T01:07:52;589.30;2432.00
54796;DHT22;40693;43.884;20.340;2023-07-20T01:10:31;589.10;2432.00
54796;DHT22;40693;43.884;20.340;2023-07-20T01:13:00;589.20;2432.00
54796;DHT22;40693;43.884;20.340;2023-07-20T01:15:27;589.20;2432.00
54796;DHT22;40693;43.884;20.340;2023-07-20T01:17:53;589.20;2432.00
54796;DHT22;40693;43.884;20.340;2023-07-20T01:20:20;589.20;2432.00
54796;DHT22;40693;43.884;20.340;2023-07-20T01:29:17;589.20;2432.00
54796;DHT22;40693;43.884;20.340;2023-07-20T01:31:51;589.20;2432.00
54796;DHT22;40693;43.884;20.340;2023-07-20T01:34:18;589.20;2432.00
54796;DHT22;40693;43.884;20.340;2023-07-20T01:36:45;589.20;2432.00
54796;DHT22;40693;43.884;20.340;2023-07-20T01:39:12;589.20;2432.00
54796;DHT22;40693;43.884;20.340;2023-07-20T01:41:37;589.30;2432.00
54796;DHT22;40693;43.884;20.340;2023-07-20T01:44:04;589.30;2432.00
54796;DHT22;40693;43.884;20.340;2023-07-20T01:46:30;589.20;2432.00
54796;DHT22;40693;43.884;20.340;2023-07-20T01:48:55;589.20;2432.00
54796;DHT22;40693;43.884;20.340;2023-07-20T01:51:21;589.10;2432.00
54796;DHT22;40693;43.884;20.340;2023-07-20T01:53:47;589.00;2432.00
54796;DHT22;40693;43.884;20.340;2023-07-20T01:56:13;589.00;2432.00
54796;DHT22;40693;43.884;20.340;2023-07-20T01:58:38;589.00;2432.00
54796;DHT22;40693;43.884;20.340;2023-07-20T02:01:04;589.00;2432.00
54796;DHT22;40693;43.884;20.340;2023-07-20T02:03:30;589.10;2432.00
54796;DHT22;40693;43.884;20.340;2023-07-20T02:05:56;589.10;2432.00
54796;DHT22;40693;43.884;20.340;2023-07-20T02:08:24;589.10;2432.00
54796;DHT22;40693;43.884;20.340;2023-07-20T02:10:51;589.10;2432.00
54796;DHT22;40693;43.884;20.340;2023-07-20T02:13:17;589.20;2432.00
54796;DHT22;40693;43.884;20.340;2023-07-20T02:15:43;589.20;2432.00
54796;DHT22;40693;43.884;20.340;2023-07-20T02:18:09;589.20;2432.00
54796;DHT22;40693;43.884;20.340;2023-07-20T02:20:35;589.20;2432.00
54796;DHT22;40693;43.884;20.340;2023-07-20T02:23:01;589.20;2432.00
54796;DHT22;40693;43.884;20.340;2023-07-20T02:25:27;589.20;2432.00
54796;DHT22;40693;43.884;20.340;2023-07-20T02:27:55;589.20;2432.00
54796;DHT22;40693;43.884;20.340;2023-07-20T02:30:21;589.20;2432.00
54796;DHT22;40693;43.884;20.340;2023-07-20T02:32:47;589.20;2432.00
54796;DHT22;40693;43.884;20.340;2023-07-20T02:35:14;589.20;2432.00
54796;DHT22;40693;43.884;20.340;2023-07-20T02:37:40;589.20;2432.00
54796;DHT22;40693;43.884;20.340;2023-07-20T02:40:06;589.20;2432.00
54796;DHT22;40693;43.884;20.340;2023-07-20T02:42:33;589.20;2432.00
54796;DHT22;40693;43.884;20.340;2023-07-20T02:44:58;589.20;2432.00
54796;DHT22;40693;43.884;20.340;2023-07-20T02:47:24;589.20;2432.00
54796;DHT22;40693;43.884;20.340;2023-07-20T02:49:50;589.20;2432.00
54796;DHT22;40693;43.884;20.340;2023-07-20T02:52:16;589.20;2432.00
54796;DHT22;40693;43.884;20.340;2023-07-20T02:54:42;589.20;2432.00
54796;DHT22;40693;43.884;20.340;2023-07-20T02:57:07;589.20;2432.00
54796;DHT22;40693;43.884;20.340;2023-07-20T02:59:33;589.20;2432.00
54796;DHT22;40693;43.884;20.340;2023-07-20T03:01:59;589.20;2432.00
54796;DHT22;40693;43.884;20.340;2023-07-20T03:04:27;589.20;2432.00
54796;DHT22;40693;43.884;20.340;2023-07-20T03:06:53;589.20;2432.00
54796;DHT22;40693;43.884;20.340;2023-07-20T03:09:19;589.20;2432.00
54796;DHT22;40693;43.884;20.340;2023-07-20T03:11:45;589.20;2432.00
54796;DHT22;40693;43.884;20.340;2023-07-20T03:14:10;589.20;2432.00
54796;DHT22;40693;43.884;20.340;2023-07-20T03:16:37;589.20;2432.00
54796;DHT22;40693;43.884;20.340;2023-07-20T03:19:02;589.20;2432.00
54796;DHT22;40693;43.884;20.340;2023-07-20T03:21:29;589.20;2432.00
54796;DHT22;40693;43.884;20.340;2023-07-20T03:23:55;589.30;2432.00
54796;DHT22;40693;43.884;20.340;2023-07-20T03:26:21;589.30;2432.00
54796;DHT22;40693;43.884;20.340;2023-07-20T03:28:46;589.30;2432.00
54796;DHT22;40693;43.884;20.340;2023-07-20T03:31:13;589.30;2432.00
54796;DHT22;40693;43.884;20.340;2023-07-20T03:33:40;589.30;2432.00
54796;DHT22;40693;43.884;20.340;2023-07-20T03:36:06;589.20;2432.00
54796;DHT22;40693;43.884;20.340;2023-07-20T03:38:31;589.20;2432.00
54796;DHT22;40693;43.884;20.340;2023-07-20T03:40:59;589.20;2432.00
54796;DHT22;40693;43.884;20.340;2023-07-20T03:43:26;589.00;2432.00
54796;DHT22;40693;43.884;20.340;2023-07-20T03:45:53;589.20;2432.00
54796;DHT22;40693;43.884;20.340;2023-07-20T03:48:23;589.20;2432.00
54796;DHT22;40693;43.884;20.340;2023-07-20T03:50:51;589.30;2432.00
54796;DHT22;40693;43.884;20.340;2023-07-20T03:53:18;589.10;2432.00
54796;DHT22;40693;43.884;20.340;2023-07-20T03:55:51;589.10;2432.00
54796;DHT22;40693;43.884;20.340;2023-07-20T03:58:17;589.00;2432.00
54796;DHT22;40693;43.884;20.340;2023-07-20T04:00:48;564.10;2432.00
54796;DHT22;40693;43.884;20.340;2023-07-20T04:03:15;563.80;2432.00
54796;DHT22;40693;43.884;20.340;2023-07-20T04:05:42;563.40;2432.00
54796;DHT22;40693;43.884;20.340;2023-07-20T04:08:09;563.40;2432.00
54796;DHT22;40693;43.884;20.340;2023-07-20T04:10:36;563.40;2432.00
54796;DHT22;40693;43.884;20.340;2023-07-20T04:13:02;563.30;2432.00
54796;DHT22;40693;43.884;20.340;2023-07-20T04:15:28;563.40;2432.00
54796;DHT22;40693;43.884;20.340;2023-07-20T04:17:54;563.50;2432.00
54796;DHT22;40693;43.884;20.340;2023-07-20T04:20:22;563.50;2432.00
54796;DHT22;40693;43.884;20.340;2023-07-20T04:22:48;563.60;2432.00
54796;DHT22;40693;43.884;20.340;2023-07-20T04:25:14;563.40;2432.00
54796;DHT22;40693;43.884;20.340;2023-07-20T04:27:39;563.50;2432.00
54796;DHT22;40693;43.884;20.340;2023-07-20T04:30:07;563.60;2432.00
54796;DHT22;40693;43.884;20.340;2023-07-20T04:32:33;563.70;2432.00
54796;DHT22;40693;43.884;20.340;2023-07-20T04:34:59;563.80;2432.00
54796;DHT22;40693;43.884;20.340;2023-07-20T04:37:25;563.90;2432.00
54796;DHT22;40693;43.884;20.340;2023-07-20T04:39:51;563.90;2432.00
54796;DHT22;40693;43.884;20.340;2023-07-20T04:42:16;563.90;2432.00
54796;DHT22;40693;43.884;20.340;2023-07-20T04:44:51;563.90;2432.00
54796;DHT22;40693;43.884;20.340;2023-07-20T04:47:16;563.70;2432.00
54796;DHT22;40693;43.884;20.340;2023-07-20T04:49:42;563.60;2432.00
54796;DHT22;40693;43.884;20.340;2023-07-20T04:52:08;563.40;2432.00
54796;DHT22;40693;43.884;20.340;2023-07-20T04:54:33;563.40;2432.00
54796;DHT22;40693;43.884;20.340;2023-07-20T04:57:10;563.40;2432.00
54796;DHT22;40693;43.884;20.340;2023-07-20T04:59:36;563.30;2432.00
54796;DHT22;40693;43.884;20.340;2023-07-20T05:02:02;563.30;2432.00
54796;DHT22;40693;43.884;20.340;2023-07-20T05:04:27;563.30;2432.00
54796;DHT22;40693;43.884;20.340;2023-07-20T05:06:53;563.20;2432.00
54796;DHT22;40693;43.884;20.340;2023-07-20T05:09:19;538.50;2406.40
54796;DHT22;40693;43.884;20.340;2023-07-20T05:11:44;563.20;2432.00
54796;DHT22;40693;43.884;20.340;2023-07-20T05:14:12;563.20;2432.00
54796;DHT22;40693;43.884;20.340;2023-07-20T05:16:38;563.20;2432.00
54796;DHT22;40693;43.884;20.340;2023-07-20T05:19:03;563.20;2432.00
54796;DHT22;40693;43.884;20.340;2023-07-20T05:21:29;563.20;2432.00
54796;DHT22;40693;43.884;20.340;2023-07-20T05:23:55;563.20;2432.00
54796;DHT22;40693;43.884;20.340;2023-07-20T05:26:20;563.30;2432.00
54796;DHT22;40693;43.884;20.340;2023-07-20T05:28:46;563.40;2432.00
54796;DHT22;40693;43.884;20.340;2023-07-20T05:31:12;563.50;2432.00
54796;DHT22;40693;43.884;20.340;2023-07-20T05:33:38;563.60;2432.00
54796;DHT22;40693;43.884;20.340;2023-07-20T05:36:04;563.70;2432.00
54796;DHT22;40693;43.884;20.340;2023-07-20T05:38:30;563.70;2432.00
54796;DHT22;40693;43.884;20.340;2023-07-20T05:40:59;563.70;2432.00
54796;DHT22;40693;43.884;20.340;2023-07-20T05:43:26;563.80;2432.00
54796;DHT22;40693;43.884;20.340;2023-07-20T05:45:52;563.90;2432.00
54796;DHT22;40693;43.884;20.340;2023-07-20T05:48:17;564.00;2432.00
54796;DHT22;40693;43.884;20.340;2023-07-20T05:50:43;564.00;2432.00
54796;DHT22;40693;43.884;20.340;2023-07-20T05:53:09;564.10;2432.00
54796;DHT22;40693;43.884;20.340;2023-07-20T05:55:38;564.10;2432.00
54796;DHT22;40693;43.884;20.340;2023-07-20T05:58:05;564.00;2432.00
54796;DHT22;40693;43.884;20.340;2023-07-20T06:00:31;564.00;2432.00
54796;DHT22;40693;43.884;20.340;2023-07-20T06:02:57;564.00;2432.00
54796;DHT22;40693;43.884;20.340;2023-07-20T06:05:23;563.90;2432.00
54796;DHT22;40693;43.884;20.340;2023-07-20T06:07:51;563.80;2432.00
54796;DHT22;40693;43.884;20.340;2023-07-20T06:10:17;563.90;2432.00
54796;DHT22;40693;43.884;20.340;2023-07-20T06:12:43;564.00;2432.00
54796;DHT22;40693;43.884;20.340;2023-07-20T06:15:27;564.00;2432.00
54796;DHT22;40693;43.884;20.340;2023-07-20T06:17:54;564.00;2432.00
54796;DHT22;40693;43.884;20.340;2023-07-20T06:20:22;564.00;2432.00
54796;DHT22;40693;43.884;20.340;2023-07-20T06:22:48;564.10;2432.00
54796;DHT22;40693;43.884;20.340;2023-07-20T06:25:13;588.80;2432.00
54796;DHT22;40693;43.884;20.340;2023-07-20T06:27:39;588.80;2432.00
54796;DHT22;40693;43.884;20.340;2023-07-20T06:30:13;588.90;2432.00
54796;DHT22;40693;43.884;20.340;2023-07-20T06:32:42;589.00;2432.00
54796;DHT22;40693;43.884;20.340;2023-07-20T06:35:13;589.10;2432.00
54796;DHT22;40693;43.884;20.340;2023-07-20T06:37:45;589.10;2432.00
54796;DHT22;40693;43.884;20.340;2023-07-20T06:40:13;589.20;2432.00
54796;DHT22;40693;43.884;20.340;2023-07-20T06:42:38;589.30;2432.00
54796;DHT22;40693;43.884;20.340;2023-07-20T06:45:04;589.40;2432.00
54796;DHT22;40693;43.884;20.340;2023-07-20T06:47:42;589.40;2432.00
54796;DHT22;40693;43.884;20.340;2023-07-20T06:50:09;589.50;2432.00
54796;DHT22;40693;43.884;20.340;2023-07-20T06:52:36;614.70;2432.00
54796;DHT22;40693;43.884;20.340;2023-07-20T06:55:01;589.60;2432.00
54796;DHT22;40693;43.884;20.340;2023-07-20T06:57:27;589.70;2432.00
54796;DHT22;40693;43.884;20.340;2023-07-20T06:59:53;614.40;2432.00
54796;DHT22;40693;43.884;20.340;2023-07-20T07:02:19;614.40;2432.00
54796;DHT22;40693;43.884;20.340;2023-07-20T07:04:45;614.60;2432.00
54796;DHT22;40693;43.884;20.340;2023-07-20T07:07:13;614.60;2432.00
54796;DHT22;40693;43.884;20.340;2023-07-20T07:09:39;614.80;2432.00
54796;DHT22;40693;43.884;20.340;2023-07-20T07:12:05;614.90;2432.00
54796;DHT22;40693;43.884;20.340;2023-07-20T07:14:31;615.00;2432.00
54796;DHT22;40693;43.884;20.340;2023-07-20T07:16:57;615.20;2432.00
54796;DHT22;40693;43.884;20.340;2023-07-20T07:19:23;615.30;2432.00
54796;DHT22;40693;43.884;20.340;2023-07-20T07:21:48;640.00;2432.00
54796;DHT22;40693;43.884;20.340;2023-07-20T07:24:14;640.10;2432.00
54796;DHT22;40693;43.884;20.340;2023-07-20T07:26:40;640.20;2432.00
54796;DHT22;40693;43.884;20.340;2023-07-20T07:29:05;640.30;2432.00
54796;DHT22;40693;43.884;20.340;2023-07-20T07:31:34;640.50;2432.00
54796;DHT22;40693;43.884;20.340;2023-07-20T07:34:04;640.60;2432.00
54796;DHT22;40693;43.884;20.340;2023-07-20T07:36:31;640.70;2432.00
54796;DHT22;40693;43.884;20.340;2023-07-20T07:38:57;640.60;2432.00
54796;DHT22;40693;43.884;20.340;2023-07-20T07:41:22;640.90;2432.00
54796;DHT22;40693;43.884;20.340;2023-07-20T07:43:48;665.60;2432.00
54796;DHT22;40693;43.884;20.340;2023-07-20T07:46:14;665.70;2432.00
54796;DHT22;40693;43.884;20.340;2023-07-20T07:48:40;665.70;2432.00
54796;DHT22;40693;43.884;20.340;2023-07-20T07:51:06;666.00;2432.00
54796;DHT22;40693;43.884;20.340;2023-07-20T07:53:32;666.00;2432.00
54796;DHT22;40693;43.884;20.340;2023-07-20T07:55:58;666.00;2432.00
54796;DHT22;40693;43.884;20.340;2023-07-20T07:58:24;666.20;2432.00
54796;DHT22;40693;43.884;20.340;2023-07-20T08:00:49;666.40;2432.00
54796;DHT22;40693;43.884;20.340;2023-07-20T08:03:15;666.40;2432.00
54796;DHT22;40693;43.884;20.340;2023-07-20T08:05:41;666.50;2432.00
54796;DHT22;40693;43.884;20.340;2023-07-20T08:08:07;666.50;2432.00
54796;DHT22;40693;43.884;20.340;2023-07-20T08:10:34;666.50;2432.00
54796;DHT22;40693;43.884;20.340;2023-07-20T08:12:59;691.20;2432.00
54796;DHT22;40693;43.884;20.340;2023-07-20T08:15:25;691.20;2432.00
54796;DHT22;40693;43.884;20.340;2023-07-20T08:17:51;691.30;2432.00
54796;DHT22;40693;43.884;20.340;2023-07-20T08:20:17;691.30;2432.00
54796;DHT22;40693;43.884;20.340;2023-07-20T08:22:43;691.20;2432.00
54796;DHT22;40693;43.884;20.340;2023-07-20T08:25:09;691.30;2432.00
54796;DHT22;40693;43.884;20.340;2023-07-20T08:27:36;691.40;2432.00
54796;DHT22;40693;43.884;20.340;2023-07-20T08:30:02;691.30;2432.00
54796;DHT22;40693;43.884;20.340;2023-07-20T08:32:30;691.40;2432.00
54796;DHT22;40693;43.884;20.340;2023-07-20T08:34:55;691.30;2432.00
54796;DHT22;40693;43.884;20.340;2023-07-20T08:37:21;691.40;2432.00
54796;DHT22;40693;43.884;20.340;2023-07-20T08:39:47;691.40;2432.00
54796;DHT22;40693;43.884;20.340;2023-07-20T08:42:14;691.70;2432.00
54796;DHT22;40693;43.884;20.340;2023-07-20T08:44:41;691.60;2432.00
54796;DHT22;40693;43.884;20.340;2023-07-20T08:47:09;691.70;2432.00
54796;DHT22;40693;43.884;20.340;2023-07-20T08:49:36;691.90;2432.00
54796;DHT22;40693;43.884;20.340;2023-07-20T08:52:04;692.10;2432.00
54796;DHT22;40693;43.884;20.340;2023-07-20T08:54:31;716.80;2432.00
54796;DHT22;40693;43.884;20.340;2023-07-20T08:57:02;716.80;2432.00
54796;DHT22;40693;43.884;20.340;2023-07-20T08:59:29;692.10;2432.00
54796;DHT22;40693;43.884;20.340;2023-07-20T09:01:56;716.80;2432.00
54796;DHT22;40693;43.884;20.340;2023-07-20T09:04:23;717.00;2432.00
54796;DHT22;40693;43.884;20.340;2023-07-20T09:06:49;717.00;2432.00
54796;DHT22;40693;43.884;20.340;2023-07-20T09:09:16;717.10;2432.00
54796;DHT22;40693;43.884;20.340;2023-07-20T09:11:42;717.00;2432.00
54796;DHT22;40693;43.884;20.340;2023-07-20T09:14:08;717.20;2432.00
54796;DHT22;40693;43.884;20.340;2023-07-20T09:16:54;717.20;2432.00
54796;DHT22;40693;43.884;20.340;2023-07-20T09:19:21;717.20;2432.00
54796;DHT22;40693;43.884;20.340;2023-07-20T09:21:51;717.20;2432.00
54796;DHT22;40693;43.884;20.340;2023-07-20T09:24:18;717.20;2432.00
54796;DHT22;40693;43.884;20.340;2023-07-20T09:26:45;717.50;2432.00
54796;DHT22;40693;43.884;20.340;2023-07-20T09:29:14;717.40;2406.40
54796;DHT22;40693;43.884;20.340;2023-07-20T09:31:40;717.40;2406.40
54796;DHT22;40693;43.884;20.340;2023-07-20T09:34:06;717.40;2329.60
54796;DHT22;40693;43.884;20.340;2023-07-20T09:36:36;717.40;2304.00
54796;DHT22;40693;43.884;20.340;2023-07-20T09:39:03;717.40;2304.00
54796;DHT22;40693;43.884;20.340;2023-07-20T09:41:30;717.60;2329.60
54796;DHT22;40693;43.884;20.340;2023-07-20T09:44:04;717.70;2278.40
54796;DHT22;40693;43.884;20.340;2023-07-20T09:46:44;742.50;2227.20
54796;DHT22;40693;43.884;20.340;2023-07-20T09:49:10;742.60;2252.80
54796;DHT22;40693;43.884;20.340;2023-07-20T09:51:36;742.80;2227.20
54796;DHT22;40693;43.884;20.340;2023-07-20T09:54:03;742.90;2201.60
54796;DHT22;40693;43.884;20.340;2023-07-20T09:56:30;742.90;2124.80
54796;DHT22;40693;43.884;20.340;2023-07-20T09:58:57;742.90;2150.40
54796;DHT22;40693;43.884;20.340;2023-07-20T10:01:23;743.00;2073.60
54796;DHT22;40693;43.884;20.340;2023-07-20T10:03:52;743.10;2124.80
54796;DHT22;40693;43.884;20.340;2023-07-20T10:06:23;743.00;2073.60
54796;DHT22;40693;43.884;20.340;2023-07-20T10:08:53;743.30;2124.80
54796;DHT22;40693;43.884;20.340;2023-07-20T10:11:22;768.00;2176.00
54796;DHT22;40693;43.884;20.340;2023-07-20T10:13:51;768.00;2150.40
54796;DHT22;40693;43.884;20.340;2023-07-20T10:16:31;768.00;2150.40
54796;DHT22;40693;43.884;20.340;2023-07-20T10:19:13;768.20;2227.20
54796;DHT22;40693;43.884;20.340;2023-07-20T10:21:48;768.40;2201.60
54796;DHT22;40693;43.884;20.340;2023-07-20T10:24:16;768.60;2252.80
54796;DHT22;40693;43.884;20.340;2023-07-20T10:26:43;768.90;2176.00
54796;DHT22;40693;43.884;20.340;2023-07-20T10:29:09;793.60;2227.20
54796;DHT22;40693;43.884;20.340;2023-07-20T10:31:37;793.70;2278.40
54796;DHT22;40693;43.884;20.340;2023-07-20T10:34:04;793.90;2124.80
54796;DHT22;40693;43.884;20.340;2023-07-20T10:36:30;793.80;2022.40
54796;DHT22;40693;43.884;20.340;2023-07-20T10:38:56;793.70;2099.20
54796;DHT22;40693;43.884;20.340;2023-07-20T10:44:01;793.70;2048.00
54796;DHT22;40693;43.884;20.340;2023-07-20T10:49:06;793.60;2048.00
54796;DHT22;40693;43.884;20.340;2023-07-20T10:51:58;793.80;2048.00
54796;DHT22;40693;43.884;20.340;2023-07-20T10:56:55;794.20;1996.80
54796;DHT22;40693;43.884;20.340;2023-07-20T11:01:55;819.30;1971.20
54796;DHT22;40693;43.884;20.340;2023-07-20T11:04:57;819.50;1971.20
54796;DHT22;40693;43.884;20.340;2023-07-20T11:07:38;819.40;1894.40
54796;DHT22;40693;43.884;20.340;2023-07-20T11:10:16;819.30;1843.20
54796;DHT22;40693;43.884;20.340;2023-07-20T11:15:45;819.20;1894.40
54796;DHT22;40693;43.884;20.340;2023-07-20T11:18:12;819.30;1868.80
54796;DHT22;40693;43.884;20.340;2023-07-20T11:20:39;819.20;1920.00
54796;DHT22;40693;43.884;20.340;2023-07-20T11:23:05;819.30;1868.80
54796;DHT22;40693;43.884;20.340;2023-07-20T11:25:40;819.40;1868.80
54796;DHT22;40693;43.884;20.340;2023-07-20T11:28:09;819.50;1843.20
54796;DHT22;40693;43.884;20.340;2023-07-20T11:30:37;819.60;1868.80
54796;DHT22;40693;43.884;20.340;2023-07-20T11:33:03;819.70;1868.80
54796;DHT22;40693;43.884;20.340;2023-07-20T11:35:29;819.90;1868.80
54796;DHT22;40693;43.884;20.340;2023-07-20T11:37:55;820.00;1920.00
54796;DHT22;40693;43.884;20.340;2023-07-20T11:40:22;844.90;1894.40
54796;DHT22;40693;43.884;20.340;2023-07-20T11:42:49;845.20;1920.00
54796;DHT22;40693;43.884;20.340;2023-07-20T11:45:16;845.20;1792.00
54796;DHT22;40693;43.884;20.340;2023-07-20T11:47:43;845.00;1792.00
54796;DHT22;40693;43.884;20.340;2023-07-20T11:50:10;845.10;1792.00
54796;DHT22;40693;43.884;20.340;2023-07-20T11:52:36;845.10;1843.20
54796;DHT22;40693;43.884;20.340;2023-07-20T11:55:03;845.30;1843.20
54796;DHT22;40693;43.884;20.340;2023-07-20T11:57:29;845.50;1817.60
54796;DHT22;40693;43.884;20.340;2023-07-20T12:00:02;845.70;1740.80
54796;DHT22;40693;43.884;20.340;2023-07-20T12:02:37;845.70;1817.60
54796;DHT22;40693;43.884;20.340;2023-07-20T12:05:03;870.40;1715.20
54796;DHT22;40693;43.884;20.340;2023-07-20T12:07:32;870.50;1766.40
54796;DHT22;40693;43.884;20.340;2023-07-20T12:10:06;870.50;1664.00
54796;DHT22;40693;43.884;20.340;2023-07-20T12:12:43;870.60;1740.80
54796;DHT22;40693;43.884;20.340;2023-07-20T12:15:25;870.70;1740.80
54796;DHT22;40693;43.884;20.340;2023-07-20T12:17:59;870.80;1740.80
54796;DHT22;40693;43.884;20.340;2023-07-20T12:20:27;871.00;1715.20
54796;DHT22;40693;43.884;20.340;2023-07-20T12:22:56;871.00;1715.20
54796;DHT22;40693;43.884;20.340;2023-07-20T12:25:22;870.90;1638.40
54796;DHT22;40693;43.884;20.340;2023-07-20T12:27:49;870.60;1638.40
54796;DHT22;40693;43.884;20.340;2023-07-20T12:30:15;870.50;1638.40
54796;DHT22;40693;43.884;20.340;2023-07-20T12:32:40;845.70;1612.80
54796;DHT22;40693;43.884;20.340;2023-07-20T12:35:06;845.40;1664.00
54796;DHT22;40693;43.884;20.340;2023-07-20T12:37:32;845.40;1664.00
54796;DHT22;40693;43.884;20.340;2023-07-20T12:39:58;845.70;1715.20
54796;DHT22;40693;43.884;20.340;2023-07-20T12:42:24;870.40;1715.20
54796;DHT22;40693;43.884;20.340;2023-07-20T12:44:50;870.60;1715.20
54796;DHT22;40693;43.884;20.340;2023-07-20T12:47:17;870.60;1638.40
54796;DHT22;40693;43.884;20.340;2023-07-20T12:49:45;870.60;1612.80
54796;DHT22;40693;43.884;20.340;2023-07-20T12:52:12;870.50;1638.40
54796;DHT22;40693;43.884;20.340;2023-07-20T12:54:38;870.70;1612.80
54796;DHT22;40693;43.884;20.340;2023-07-20T12:57:04;870.70;1612.80
54796;DHT22;40693;43.884;20.340;2023-07-20T12:59:30;870.70;1536.00
54796;DHT22;40693;43.884;20.340;2023-07-20T13:01:55;870.50;1587.20
54796;DHT22;40693;43.884;20.340;2023-07-20T13:04:21;870.50;1612.80
54796;DHT22;40693;43.884;20.340;2023-07-20T13:06:47;870.60;1612.80
54796;DHT22;40693;43.884;20.340;2023-07-20T13:09:12;870.60;1612.80
54796;DHT22;40693;43.884;20.340;2023-07-20T13:11:38;870.60;1638.40
54796;DHT22;40693;43.884;20.340;2023-07-20T13:14:04;870.80;1612.80
54796;DHT22;40693;43.884;20.340;2023-07-20T13:16:30;870.80;1587.20
54796;DHT22;40693;43.884;20.340;2023-07-20T13:18:56;871.00;1612.80
54796;DHT22;40693;43.884;20.340;2023-07-20T13:21:21;871.20;1612.80
54796;DHT22;40693;43.884;20.340;2023-07-20T13:23:48;871.20;1561.60
54796;DHT22;40693;43.884;20.340;2023-07-20T13:26:15;871.20;1561.60
54796;DHT22;40693;43.884;20.340;2023-07-20T13:28:41;871.10;1536.00
54796;DHT22;40693;43.884;20.340;2023-07-20T13:31:07;870.90;1536.00
54796;DHT22;40693;43.884;20.340;2023-07-20T13:33:35;871.10;1536.00
54796;DHT22;40693;43.884;20.340;2023-07-20T13:36:01;871.20;1561.60
54796;DHT22;40693;43.884;20.340;2023-07-20T13:38:27;896.00;1587.20
54796;DHT22;40693;43.884;20.340;2023-07-20T13:40:53;896.10;1561.60
54796;DHT22;40693;43.884;20.340;2023-07-20T13:43:19;896.30;1510.40
54796;DHT22;40693;43.884;20.340;2023-07-20T13:45:45;896.40;1536.00
54796;DHT22;40693;43.884;20.340;2023-07-20T13:48:10;896.60;1561.60
54796;DHT22;40693;43.884;20.340;2023-07-20T13:50:36;896.50;1536.00
54796;DHT22;40693;43.884;20.340;2023-07-20T13:53:02;896.40;1536.00
54796;DHT22;40693;43.884;20.340;2023-07-20T13:55:28;896.50;1536.00
54796;DHT22;40693;43.884;20.340;2023-07-20T13:57:54;896.50;1561.60
54796;DHT22;40693;43.884;20.340;2023-07-20T14:00:20;896.60;1587.20
54796;DHT22;40693;43.884;20.340;2023-07-20T14:02:49;896.40;1536.00
54796;DHT22;40693;43.884;20.340;2023-07-20T14:05:15;896.30;1536.00
54796;DHT22;40693;43.884;20.340;2023-07-20T14:07:42;896.40;1561.60
54796;DHT22;40693;43.884;20.340;2023-07-20T14:10:08;896.50;1561.60
54796;DHT22;40693;43.884;20.340;2023-07-20T14:12:34;896.50;1536.00
54796;DHT22;40693;43.884;20.340;2023-07-20T14:15:00;896.20;1561.60
54796;DHT22;40693;43.884;20.340;2023-07-20T14:17:25;896.20;1536.00
54796;DHT22;40693;43.884;20.340;2023-07-20T14:19:52;896.20;1561.60
54796;DHT22;40693;43.884;20.340;2023-07-20T14:22:18;896.40;1561.60
54796;DHT22;40693;43.884;20.340;2023-07-20T14:24:44;896.70;1536.00
54796;DHT22;40693;43.884;20.340;2023-07-20T14:27:09;896.60;1561.60
54796;DHT22;40693;43.884;20.340;2023-07-20T14:29:36;896.70;1536.00
54796;DHT22;40693;43.884;20.340;2023-07-20T14:32:02;896.70;1561.60
54796;DHT22;40693;43.884;20.340;2023-07-20T14:34:30;896.80;1510.40
54796;DHT22;40693;43.884;20.340;2023-07-20T14:39:22;896.80;1484.80
54796;DHT22;40693;43.884;20.340;2023-07-20T14:41:50;896.80;1484.80
54796;DHT22;40693;43.884;20.340;2023-07-20T14:44:16;896.70;1459.20
54796;DHT22;40693;43.884;20.340;2023-07-20T14:46:42;896.70;1459.20
54796;DHT22;40693;43.884;20.340;2023-07-20T14:49:07;896.70;1484.80
54796;DHT22;40693;43.884;20.340;2023-07-20T14:51:33;896.70;1484.80
54796;DHT22;40693;43.884;20.340;2023-07-20T14:54:01;896.90;1484.80
54796;DHT22;40693;43.884;20.340;2023-07-20T14:56:27;921.60;1459.20
54796;DHT22;40693;43.884;20.340;2023-07-20T14:58:53;921.70;1459.20
54796;DHT22;40693;43.884;20.340;2023-07-20T15:01:19;921.60;1459.20
54796;DHT22;40693;43.884;20.340;2023-07-20T15:03:44;921.90;1459.20
54796;DHT22;40693;43.884;20.340;2023-07-20T15:06:11;921.70;1510.40